Date,TemperatureHighF,TemperatureAvgF,TemperatureLowF,DewpointHighF,DewpointAvgF,DewpointLowF,HumidityHigh,HumidityAvg,HumidityLow,PressureMaxIn,PressureMinIn,WindSpeedMaxMPH,WindSpeedAvgMPH,GustSpeedMaxMPH,PrecipitationSumIn
2013-2-1,25.0,19.6,12.0,16.0,8.7,1.0,74,62,53,30.48,30.24,8,2,16,0.04
2013-2-2,39.0,32.9,23.0,33.0,24.3,12.0,88,71,52,30.26,30.02,13,4,22,0.00
2013-2-3,44.0,36.0,27.0,33.0,26.4,19.0,88,69,47,30.10,29.93,8,3,19,0.00
2013-2-4,49.0,38.8,27.0,41.0,31.0,21.0,91,75,43,30.05,29.81,14,5,24,0.04
2013-2-5,56.0,44.7,34.0,43.0,38.9,32.0,99,82,44,30.01,29.83,10,2,16,0.00
2013-2-6,52.0,42.0,31.0,36.0,31.9,28.0,99,70,40,30.17,29.99,9,3,12,0.01
2013-2-7,65.0,51.7,40.0,53.0,40.7,30.0,98,67,53,30.01,29.78,10,2,19,0.08
2013-2-8,51.0,39.8,33.0,48.0,33.1,-4.0,99,79,10,30.28,29.81,17,5,25,0.42
2013-2-9,48.0,38.5,30.0,32.0,27.9,25.0,84,67,45,30.31,30.00,12,5,17,0.00
2013-2-10,58.0,51.4,44.0,57.0,43.1,-4.0,98,76,10,30.00,29.64,19,9,35,0.47
2013-2-11,58.0,44.9,33.0,57.0,33.3,26.0,97,65,38,30.08,29.76,13,4,21,0.00
2013-2-12,47.0,39.3,28.0,34.0,29.7,26.0,97,70,47,30.08,29.76,10,3,14,0.01
2013-2-13,43.0,39.0,36.0,37.0,35.2,32.0,99,87,70,29.89,29.71,11,4,20,0.13
2013-2-14,56.0,42.3,36.0,39.0,36.6,35.0,98,82,51,29.91,29.86,14,6,20,0.13
2013-2-21,40.0,34.5,32.0,38.0,13.5,-17.0,99,61,10,29.93,29.75,18,9,30,0.93
2013-2-22,46.0,40.9,34.0,42.0,30.6,-12.0,99,76,10,29.98,29.75,13,4,18,0.01
2013-2-23,46.0,34.4,27.0,30.0,26.3,24.0,91,74,46,29.98,29.88,9,2,11,0.01
2013-2-24,49.0,36.5,24.0,29.0,24.5,21.0,93,65,36,30.07,29.92,11,4,14,0.00
2013-2-25,56.0,45.7,32.0,45.0,28.3,23.0,87,52,34,29.94,29.40,18,10,30,0.01
2013-2-26,50.0,44.7,38.0,50.0,32.8,-6.0,99,75,10,29.60,29.25,24,9,35,0.58
2013-2-27,38.0,37.2,35.0,35.0,31.9,29.0,90,81,71,29.83,29.60,18,6,25,0.00
2013-2-28,37.0,34.7,32.0,32.0,29.1,25.0,93,80,71,30.01,29.82,9,3,17,0.01